Uvalde Research's Hourly Summary for Saturday, May 12, 2018
Hour Temp
(f)
RH
(%)
Solar Rad.
(MJ/m2)
Rainfall
(in)
Wind
(mph)
5/12/2018 12:00 AM 74 81 0 0 3.01
5/12/2018 1:00 AM 71 85 0 0 2.73
5/12/2018 2:00 AM 69 83 0 0 2.74
5/12/2018 3:00 AM 67 86 0 0 2.47
5/12/2018 4:00 AM 66 92 0 0 2.34
5/12/2018 5:00 AM 65 95 0 0 2.29
5/12/2018 6:00 AM 66 97 0 0 2.67
5/12/2018 7:00 AM 67 97 0.19 0 2.94
5/12/2018 8:00 AM 70 92 0.54 0 4.07
5/12/2018 9:00 AM 73 83 0.98 0 3.79
5/12/2018 10:00 AM 76 77 1.34 0 3.86
5/12/2018 11:00 AM 80 69 2.09 0 3.38
5/12/2018 12:00 PM 83 63 2.37 0 3.59
5/12/2018 1:00 PM 85 59 2.11 0 4.13
5/12/2018 2:00 PM 86 55 2.43 0 4.9
5/12/2018 3:00 PM 88 51 2.15 0 4.7
5/12/2018 4:00 PM 89 46 2.18 0 4.5
5/12/2018 5:00 PM 90 43 1.62 0 4.54
5/12/2018 6:00 PM 90 41 0.85 0 4.59
5/12/2018 7:00 PM 88 44 0.17 0 2.81
5/12/2018 8:00 PM 84 52 0.01 0 2.08
5/12/2018 9:00 PM 83 61 0 0 4.33
5/12/2018 10:00 PM 81 69 0 0 5.03
5/12/2018 11:00 PM 78 77 0 0 4.79
Data Summary 77 70 19.03 0.00 3.60